Weather at Mombasa Moi International Airport

Public forecast

Using degrees Celsius for public forecast. Weather courtesy of forecast.io.

Current aviation weather report (METAR) for Mombasa Moi International Airport

Retrieved 2020/10/26 07:00 UTC (4 minutes ago):

HKMO 260700Z 20005KT 9999 -SHRA BKN022 BKN080 27/24 Q1015 NOSIG

Aviation forecast (TAF) for Mombasa Moi International Airport

Retrieved 2020/10/26 06:00 UTC (1 hour ago):

TAF HKMO 260500Z 2606/2712 23005KT 9999 BKN021 BECMG 2609/2612 15010KT SCT026 BECMG 2700/2704 23005KT SCT022 BECMG 2709/2712 16010KT FEW026